createdAt,value
2022-10-23T00:01:47.535Z,86.01
2022-10-23T00:04:20.527Z,85.87
2022-10-23T00:06:51.377Z,86.33
2022-10-23T00:09:22.729Z,85.98
2022-10-23T00:11:51.732Z,86.67
2022-10-23T00:14:25.093Z,87.09
2022-10-23T00:16:55.685Z,85.84
2022-10-23T00:19:23.155Z,86.97
2022-10-23T00:21:50.666Z,86.53
2022-10-23T00:24:18.115Z,86.36
2022-10-23T00:26:45.626Z,86.23
2022-10-23T00:29:13.348Z,85.72
2022-10-23T00:31:40.848Z,85.96
2022-10-23T00:34:08.918Z,85.73
2022-10-23T00:36:37.884Z,85.74
2022-10-23T00:39:06.366Z,85.03
2022-10-23T00:41:34.614Z,84.92
2022-10-23T00:44:11.350Z,85.60
2022-10-23T00:46:41.984Z,85.87
2022-10-23T00:51:48.144Z,85.77
2022-10-23T00:54:23.873Z,85.46
2022-10-23T00:56:56.687Z,85.37
2022-10-23T00:59:24.431Z,85.11
2022-10-23T01:01:52.089Z,85.78
2022-10-23T01:04:20.234Z,86.06
2022-10-23T01:07:13.330Z,85.88
2022-10-23T01:10:01.566Z,85.41
2022-10-23T01:13:03.680Z,86.34
2022-10-23T01:15:44.639Z,86.57
2022-10-23T01:18:40.109Z,85.77
2022-10-23T01:21:15.709Z,86.03
2022-10-23T01:24:09.125Z,84.32
2022-10-23T01:26:49.977Z,85.47
2022-10-23T01:29:40.707Z,86.08
2022-10-23T01:32:24.616Z,86.46
2022-10-23T01:35:33.257Z,86.12
2022-10-23T01:38:14.694Z,86.62
2022-10-23T01:40:56.207Z,86.81
2022-10-23T01:43:31.743Z,85.84
2022-10-23T01:46:05.930Z,86.04
2022-10-23T01:48:37.143Z,85.86
2022-10-23T01:51:09.282Z,85.90
2022-10-23T01:53:43.115Z,85.99
2022-10-23T01:56:18.844Z,85.50
2022-10-23T01:58:53.473Z,85.89
2022-10-23T02:01:29.316Z,86.97
2022-10-23T02:06:26.693Z,88.72
2022-10-23T02:08:54.215Z,88.25
2022-10-23T02:11:24.602Z,88.36
2022-10-23T02:14:04.562Z,88.45
2022-10-23T02:16:51.364Z,88.15
2022-10-23T02:19:32.468Z,87.96
2022-10-23T02:22:35.045Z,87.84
2022-10-23T02:25:19.018Z,88.03
2022-10-23T02:27:54.309Z,86.78
2022-10-23T02:30:25.166Z,86.29
2022-10-23T02:33:08.744Z,85.45
2022-10-23T02:35:36.422Z,84.84
2022-10-23T02:38:42.491Z,85.91
2022-10-23T02:41:42.093Z,87.73
2022-10-23T02:44:11.099Z,87.48
2022-10-23T02:47:36.509Z,89.16
2022-10-23T02:50:52.200Z,89.80
2022-10-23T02:53:53.664Z,87.62
2022-10-23T02:56:36.692Z,87.63
2022-10-23T02:59:26.320Z,89.72
2022-10-23T03:02:19.388Z,90.97
2022-10-23T03:04:48.614Z,90.75
2022-10-23T03:07:19.023Z,90.87
2022-10-23T03:09:46.632Z,91.34
2022-10-23T03:12:14.966Z,91.71
2022-10-23T03:14:42.358Z,92.38
2022-10-23T03:17:10.909Z,92.29
2022-10-23T03:19:38.336Z,93.13
2022-10-23T03:22:05.864Z,93.26
2022-10-23T03:24:33.323Z,93.05
2022-10-23T03:27:00.796Z,93.39
2022-10-23T03:29:32.529Z,92.54
2022-10-23T03:32:00.030Z,93.40
2022-10-23T03:34:27.540Z,93.47
2022-10-23T03:36:55.071Z,93.11
2022-10-23T03:39:22.743Z,92.87
2022-10-23T03:41:50.254Z,93.03
2022-10-23T03:44:18.375Z,92.46
2022-10-23T03:46:46.226Z,90.45
2022-10-23T03:49:13.754Z,90.46
2022-10-23T03:51:51.802Z,89.97
2022-10-23T03:54:27.846Z,89.68
2022-10-23T03:56:57.662Z,88.92
2022-10-23T03:59:27.314Z,87.61
2022-10-23T04:01:55.360Z,87.76
2022-10-23T04:04:27.866Z,87.41
2022-10-23T04:06:55.349Z,87.46
2022-10-23T04:09:23.227Z,87.66
2022-10-23T04:11:50.699Z,87.78
2022-10-23T04:14:18.176Z,86.51
2022-10-23T04:16:45.633Z,87.20
2022-10-23T04:19:13.105Z,86.81
2022-10-23T04:21:41.846Z,86.03
2022-10-23T04:24:09.328Z,87.07
2022-10-23T04:26:36.801Z,88.56
2022-10-23T04:29:04.473Z,88.33
2022-10-23T04:31:31.979Z,89.34
2022-10-23T04:33:59.543Z,89.06
2022-10-23T04:36:31.542Z,89.85
2022-10-23T04:39:05.457Z,90.79
2022-10-23T04:41:32.910Z,90.41
2022-10-23T04:44:04.337Z,90.47
2022-10-23T04:46:36.460Z,89.25
2022-10-23T04:49:05.170Z,88.17
2022-10-23T04:52:04.579Z,88.83
2022-10-23T04:54:43.214Z,89.70
2022-10-23T04:57:29.161Z,90.14
2022-10-23T05:00:00.902Z,90.33
2022-10-23T05:02:35.267Z,90.80
2022-10-23T05:05:02.734Z,90.77
2022-10-23T05:07:37.364Z,91.22
2022-10-23T05:10:21.689Z,92.07
2022-10-23T05:12:56.233Z,92.64
2022-10-23T05:15:26.933Z,93.29
2022-10-23T05:18:00.909Z,93.19
2022-10-23T05:20:34.364Z,92.87
2022-10-23T05:23:03.698Z,92.05
2022-10-23T05:25:34.172Z,92.35
2022-10-23T05:28:12.052Z,92.25
2022-10-23T05:30:40.215Z,90.12
2022-10-23T05:33:08.239Z,90.55
2022-10-23T05:35:45.649Z,89.66
2022-10-23T05:38:16.232Z,88.40
2022-10-23T05:40:44.578Z,87.29
2022-10-23T05:43:17.603Z,87.49
2022-10-23T05:45:56.908Z,86.14
2022-10-23T05:48:35.266Z,85.16
2022-10-23T05:51:32.439Z,85.77
2022-10-23T05:54:28.826Z,85.06
2022-10-23T05:59:52.004Z,83.11
2022-10-23T06:02:19.517Z,82.54
2022-10-23T06:04:58.483Z,81.42
2022-10-23T06:07:44.704Z,80.72
2022-10-23T06:10:12.821Z,80.94
2022-10-23T06:12:47.859Z,80.33
2022-10-23T06:15:18.362Z,79.67
2022-10-23T06:18:12.562Z,78.68
2022-10-23T06:20:51.317Z,77.54
2022-10-23T06:23:25.297Z,77.31
2022-10-23T06:28:54.592Z,75.26
2022-10-23T06:31:26.829Z,72.08
2022-10-23T06:33:59.781Z,69.83
2022-10-23T06:36:29.764Z,69.44
2022-10-23T06:39:15.807Z,68.06
2022-10-23T06:41:56.954Z,66.67
2022-10-23T06:44:47.009Z,66.48
2022-10-23T06:47:18.622Z,65.49
2022-10-23T06:50:15.439Z,63.32
2022-10-23T06:52:47.680Z,63.04
2022-10-23T06:55:18.520Z,60.64
2022-10-23T06:57:47.284Z,59.61
2022-10-23T07:00:15.180Z,56.33
2022-10-23T07:02:54.252Z,52.71
2022-10-23T07:05:22.547Z,52.71
2022-10-23T07:07:50.807Z,51.11
2022-10-23T07:10:24.939Z,51.20
2022-10-23T07:13:00.825Z,49.90
2022-10-23T07:15:40.817Z,49.53
2022-10-23T07:18:14.657Z,48.81
2022-10-23T07:21:00.463Z,47.66
2022-10-23T07:23:29.818Z,46.80
2022-10-23T07:26:05.872Z,46.18
2022-10-23T07:28:35.355Z,44.59
2022-10-23T07:31:03.254Z,45.24
2022-10-23T07:33:51.128Z,42.92
2022-10-23T07:36:21.054Z,43.63
2022-10-23T07:38:48.509Z,43.35
2022-10-23T07:41:16.148Z,42.05
2022-10-23T07:43:44.928Z,41.65
2022-10-23T07:46:12.406Z,41.51
2022-10-23T07:48:40.555Z,41.33
2022-10-23T07:51:13.868Z,41.26
2022-10-23T07:53:47.058Z,40.20
2022-10-23T07:56:35.857Z,39.89
2022-10-23T07:59:16.550Z,40.42
2022-10-23T08:01:52.564Z,39.80
2022-10-23T08:04:24.925Z,39.35
2022-10-23T08:06:58.377Z,38.89
2022-10-23T08:09:29.395Z,39.08
2022-10-23T08:11:57.234Z,39.59
2022-10-23T08:14:27.622Z,38.93
2022-10-23T08:16:56.104Z,38.39
2022-10-23T08:19:46.518Z,38.79
2022-10-23T08:22:14.591Z,38.52
2022-10-23T08:24:42.173Z,38.42
2022-10-23T08:27:10.067Z,38.01
2022-10-23T08:29:43.918Z,38.13
2022-10-23T08:32:11.368Z,38.22
2022-10-23T08:34:52.322Z,37.66
2022-10-23T08:37:23.627Z,38.04
2022-10-23T08:39:53.331Z,37.90
2022-10-23T08:42:28.713Z,37.74
2022-10-23T08:45:29.382Z,37.96
2022-10-23T08:48:31.225Z,37.06
2022-10-23T08:51:40.731Z,36.77
2022-10-23T08:54:45.568Z,36.73
2022-10-23T08:57:18.614Z,36.60
2022-10-23T08:59:58.301Z,36.89
2022-10-23T09:02:30.728Z,36.34
2022-10-23T09:04:59.494Z,36.43
2022-10-23T09:07:50.002Z,37.24
2022-10-23T09:10:56.484Z,37.19
2022-10-23T09:13:53.728Z,37.03
2022-10-23T09:16:56.660Z,36.81
2022-10-23T09:19:30.371Z,37.32
2022-10-23T09:21:59.925Z,37.03
2022-10-23T09:24:31.678Z,37.38
2022-10-23T09:27:00.745Z,37.37
2022-10-23T09:29:36.064Z,37.49
2022-10-23T09:32:07.019Z,37.31
2022-10-23T09:34:36.141Z,37.71
2022-10-23T09:37:35.858Z,37.34
2022-10-23T09:40:25.402Z,36.02
2022-10-23T09:43:03.353Z,36.48
2022-10-23T09:45:35.876Z,36.45
2022-10-23T09:48:21.062Z,36.09
2022-10-23T09:51:01.238Z,35.82
2022-10-23T09:53:35.694Z,35.94
2022-10-23T09:56:24.782Z,35.91
2022-10-23T09:59:03.937Z,35.73
2022-10-23T10:01:58.191Z,34.67
2022-10-23T10:04:52.288Z,34.74
2022-10-23T10:07:32.286Z,34.81
2022-10-23T10:10:02.307Z,34.54
2022-10-23T10:12:59.895Z,32.90
2022-10-23T10:15:55.848Z,33.46
2022-10-23T10:18:40.584Z,34.23
2022-10-23T10:21:13.881Z,33.98
2022-10-23T10:24:17.501Z,33.58
2022-10-23T10:27:12.477Z,33.74
2022-10-23T10:30:07.291Z,34.10
2022-10-23T10:33:22.286Z,33.97
2022-10-23T10:36:21.971Z,33.43
2022-10-23T10:39:05.623Z,33.82
2022-10-23T10:41:58.932Z,32.78
2022-10-23T10:44:47.169Z,32.30
2022-10-23T10:47:43.213Z,32.43
2022-10-23T10:50:32.418Z,31.68
2022-10-23T10:53:58.107Z,31.57
2022-10-23T10:56:31.430Z,31.73
2022-10-23T10:59:13.757Z,31.39
2022-10-23T11:01:55.510Z,32.47
2022-10-23T11:05:17.478Z,32.34
2022-10-23T11:07:58.197Z,32.33
2022-10-23T11:10:29.357Z,32.28
2022-10-23T11:12:59.223Z,31.17
2022-10-23T11:15:41.166Z,30.54
2022-10-23T11:18:20.714Z,31.19
2022-10-23T11:21:37.495Z,31.63
2022-10-23T11:27:14.353Z,31.11
2022-10-23T11:30:25.137Z,31.30
2022-10-23T11:33:59.188Z,30.37
2022-10-23T11:36:54.038Z,31.11
2022-10-23T11:39:31.723Z,30.28
2022-10-23T11:42:09.006Z,30.00
2022-10-23T11:45:06.535Z,29.97
2022-10-23T11:47:40.288Z,31.17
2022-10-23T11:50:08.596Z,30.52
2022-10-23T11:53:12.769Z,29.77
2022-10-23T11:56:07.711Z,29.71
2022-10-23T11:58:50.960Z,30.32
2022-10-23T12:01:42.424Z,29.88
2022-10-23T12:04:15.778Z,29.11
2022-10-23T12:06:45.845Z,29.16
2022-10-23T12:09:43.275Z,29.67
2022-10-23T12:12:10.604Z,28.92
2022-10-23T12:14:50.385Z,27.99
2022-10-23T12:17:23.824Z,28.92
2022-10-23T12:20:41.082Z,28.28
2022-10-23T12:23:34.210Z,28.39
2022-10-23T12:26:39.453Z,28.54
2022-10-23T12:30:02.954Z,28.99
2022-10-23T12:33:08.133Z,28.63
2022-10-23T12:36:18.049Z,27.83
2022-10-23T12:38:51.177Z,27.86
2022-10-23T12:41:26.291Z,28.45
2022-10-23T12:43:59.533Z,28.84
2022-10-23T12:46:50.257Z,28.52
2022-10-23T12:49:24.920Z,27.98
2022-10-23T12:52:03.163Z,28.44
2022-10-23T12:54:39.169Z,28.56
2022-10-23T12:57:22.134Z,27.66
2022-10-23T13:00:00.526Z,28.42
2022-10-23T13:02:34.513Z,28.02
2022-10-23T13:05:08.386Z,28.15
2022-10-23T13:07:47.497Z,27.99
2022-10-23T13:10:21.343Z,27.54
2022-10-23T13:13:04.064Z,27.05
2022-10-23T13:15:46.118Z,26.99
2022-10-23T13:18:16.780Z,27.42
2022-10-23T13:20:58.647Z,27.38
2022-10-23T13:23:33.487Z,26.17
2022-10-23T13:26:28.342Z,25.47
2022-10-23T13:28:56.332Z,25.98
2022-10-23T13:31:37.529Z,25.07
2022-10-23T13:34:21.421Z,24.84
2022-10-23T13:37:22.099Z,24.46
2022-10-23T13:40:02.110Z,25.36
2022-10-23T13:42:29.692Z,25.46
2022-10-23T13:44:57.181Z,25.01
2022-10-23T13:47:26.019Z,24.15
2022-10-23T13:49:53.461Z,24.18
2022-10-23T13:52:23.819Z,24.88
2022-10-23T13:54:51.983Z,25.41
2022-10-23T13:57:19.872Z,26.05
2022-10-23T13:59:48.349Z,25.97
2022-10-23T14:02:22.588Z,25.64
2022-10-23T14:04:51.685Z,25.89
2022-10-23T14:07:19.337Z,26.46
2022-10-23T14:09:47.431Z,26.09
2022-10-23T14:12:15.998Z,26.66
2022-10-23T14:14:43.486Z,26.69
2022-10-23T14:17:11.015Z,26.63
2022-10-23T14:19:38.590Z,26.79
2022-10-23T14:22:06.195Z,27.76
2022-10-23T14:24:34.715Z,27.76
2022-10-23T14:27:02.604Z,27.69
2022-10-23T14:29:30.480Z,28.48
2022-10-23T14:31:57.896Z,28.07
2022-10-23T14:34:25.461Z,28.92
2022-10-23T14:37:07.993Z,28.45
2022-10-23T14:39:39.237Z,28.75
2022-10-23T14:42:06.888Z,28.76
2022-10-23T14:44:34.443Z,28.75
2022-10-23T14:47:03.118Z,28.16
2022-10-23T14:49:30.944Z,28.47
2022-10-23T14:51:59.123Z,27.28
2022-10-23T14:54:28.289Z,27.78
2022-10-23T14:56:57.206Z,28.27
2022-10-23T14:59:24.711Z,27.83
2022-10-23T15:04:19.395Z,28.82
2022-10-23T15:06:47.334Z,29.27
2022-10-23T15:09:15.696Z,30.03
2022-10-23T15:11:43.521Z,29.92
2022-10-23T15:14:11.279Z,30.11
2022-10-23T15:16:41.458Z,30.45
2022-10-23T15:19:18.136Z,31.02
2022-10-23T15:21:49.930Z,31.52
2022-10-23T15:24:20.716Z,31.66
2022-10-23T15:26:52.743Z,32.14
2022-10-23T15:29:21.351Z,32.96
2022-10-23T15:32:10.443Z,32.98
2022-10-23T15:34:39.629Z,33.30
2022-10-23T15:37:07.967Z,33.01
2022-10-23T15:39:35.700Z,33.43
2022-10-23T15:42:05.830Z,34.37
2022-10-23T15:44:34.665Z,34.66
2022-10-23T15:47:02.629Z,34.66
2022-10-23T15:49:31.379Z,35.30
2022-10-23T15:52:00.344Z,35.36
2022-10-23T15:54:32.035Z,35.65
2022-10-23T15:57:01.770Z,36.18
2022-10-23T15:59:31.010Z,36.78
2022-10-23T16:02:00.471Z,37.87
2022-10-23T16:04:28.830Z,37.54
2022-10-23T16:06:56.970Z,38.16
2022-10-23T16:09:24.888Z,37.89
2022-10-23T16:11:52.352Z,37.24
2022-10-23T16:14:19.915Z,39.21
2022-10-23T16:16:47.858Z,39.15
2022-10-23T16:19:18.711Z,39.78
2022-10-23T16:21:48.434Z,39.32
2022-10-23T16:24:16.078Z,40.28
2022-10-23T16:26:45.537Z,39.51
2022-10-23T16:29:13.403Z,40.55
2022-10-23T16:31:40.951Z,40.47
2022-10-23T16:34:09.859Z,42.33
2022-10-23T16:36:39.661Z,41.98
2022-10-23T16:39:23.775Z,42.34
2022-10-23T16:42:12.898Z,42.75
2022-10-23T16:45:10.933Z,42.59
2022-10-23T16:47:39.090Z,43.01
2022-10-23T16:50:27.362Z,43.37
2022-10-23T16:52:57.655Z,43.03
2022-10-23T16:55:25.771Z,43.42
2022-10-23T16:58:00.127Z,43.39
2022-10-23T17:00:35.678Z,43.36
2022-10-23T17:03:05.285Z,43.56
2022-10-23T17:05:36.526Z,43.34
2022-10-23T17:08:05.314Z,44.07
2022-10-23T17:10:33.419Z,44.84
2022-10-23T17:13:01.000Z,44.77
2022-10-23T17:15:29.010Z,44.62
2022-10-23T17:17:58.182Z,45.09
2022-10-23T17:20:28.155Z,45.57
2022-10-23T17:22:59.750Z,45.47
2022-10-23T17:25:27.449Z,45.17
2022-10-23T17:27:56.408Z,45.01
2022-10-23T17:30:25.434Z,44.55
2022-10-23T17:32:53.846Z,44.55
2022-10-23T17:35:26.141Z,44.74
2022-10-23T17:37:56.126Z,44.08
2022-10-23T17:40:25.185Z,44.93
2022-10-23T17:42:54.523Z,45.18
2022-10-23T17:45:23.033Z,45.88
2022-10-23T17:47:53.583Z,44.76
2022-10-23T17:50:22.264Z,44.94
2022-10-23T17:53:05.957Z,44.25
2022-10-23T17:55:39.617Z,44.81
2022-10-23T17:58:11.880Z,44.62
2022-10-23T18:00:43.793Z,46.25
2022-10-23T18:03:19.677Z,45.45
2022-10-23T18:05:47.883Z,44.82
2022-10-23T18:08:24.026Z,44.41
2022-10-23T18:10:55.074Z,45.16
2022-10-23T18:13:23.835Z,45.71
2022-10-23T18:15:51.936Z,46.79
2022-10-23T18:18:24.889Z,47.55
2022-10-23T18:20:59.062Z,47.78
2022-10-23T18:23:34.208Z,47.36
2022-10-23T18:26:05.021Z,46.60
2022-10-23T18:28:37.804Z,45.28
2022-10-23T18:31:13.669Z,46.51
2022-10-23T18:33:46.621Z,47.38
2022-10-23T18:36:30.978Z,47.74
2022-10-23T18:39:03.275Z,48.84
2022-10-23T18:41:40.721Z,49.17
2022-10-23T18:44:11.822Z,49.85
2022-10-23T18:46:46.115Z,48.94
2022-10-23T18:49:16.938Z,47.47
2022-10-23T18:51:45.169Z,48.29
2022-10-23T18:54:16.796Z,48.84
2022-10-23T18:56:49.772Z,48.39
2022-10-23T18:59:22.538Z,48.61
2022-10-23T19:01:53.107Z,50.23
2022-10-23T19:04:21.578Z,49.87
2022-10-23T19:06:51.848Z,48.52
2022-10-23T19:09:20.822Z,47.75
2022-10-23T19:11:51.107Z,48.22
2022-10-23T19:14:18.869Z,48.99
2022-10-23T19:17:17.779Z,49.74
2022-10-23T19:19:51.510Z,50.92
2022-10-23T19:22:46.243Z,50.52
2022-10-23T19:25:32.298Z,51.05
2022-10-23T19:28:03.199Z,51.24
2022-10-23T19:30:31.589Z,51.45
2022-10-23T19:33:00.623Z,52.33
2022-10-23T19:35:49.010Z,52.37
2022-10-23T19:38:17.184Z,52.01
2022-10-23T19:40:46.685Z,50.86
2022-10-23T19:43:14.333Z,50.08
2022-10-23T19:45:41.770Z,50.83
2022-10-23T19:48:12.728Z,51.59
2022-10-23T19:50:44.107Z,51.75
2022-10-23T19:53:12.118Z,50.85
2022-10-23T19:55:41.754Z,50.82
2022-10-23T19:58:22.287Z,51.87
2022-10-23T20:00:51.822Z,51.79
2022-10-23T20:03:21.584Z,50.73
2022-10-23T20:05:52.157Z,51.67
2022-10-23T20:08:21.165Z,51.82
2022-10-23T20:13:36.225Z,51.67
2022-10-23T20:16:08.068Z,52.37
2022-10-23T20:18:35.928Z,52.95
2022-10-23T20:21:03.866Z,52.94
2022-10-23T20:23:33.121Z,52.41
2022-10-23T20:26:11.402Z,52.34
2022-10-23T20:29:01.769Z,52.67
2022-10-23T20:31:31.151Z,52.53
2022-10-23T20:33:58.815Z,52.92
2022-10-23T20:36:31.663Z,53.97
2022-10-23T20:39:05.400Z,55.43
2022-10-23T20:41:37.572Z,55.06
2022-10-23T20:44:10.791Z,55.57
2022-10-23T20:46:38.836Z,55.59
2022-10-23T20:49:08.157Z,54.87
2022-10-23T20:51:36.255Z,54.84
2022-10-23T20:54:04.835Z,55.44
2022-10-23T20:56:36.360Z,56.13
2022-10-23T20:59:17.975Z,55.63
2022-10-23T21:01:53.068Z,56.03
2022-10-23T21:04:25.290Z,56.03
2022-10-23T21:07:11.126Z,56.73
2022-10-23T21:09:40.053Z,56.50
2022-10-23T21:12:07.930Z,56.98
2022-10-23T21:14:36.516Z,57.53
2022-10-23T21:17:05.603Z,57.37
2022-10-23T21:19:33.665Z,58.74
2022-10-23T21:22:02.199Z,59.40
2022-10-23T21:24:31.014Z,60.04
2022-10-23T21:26:58.476Z,60.58
2022-10-23T21:29:25.972Z,61.27
2022-10-23T21:31:56.121Z,59.38
2022-10-23T21:34:25.686Z,59.60
2022-10-23T21:37:12.609Z,61.12
2022-10-23T21:39:41.626Z,60.81
2022-10-23T21:42:10.977Z,60.35
2022-10-23T21:44:38.461Z,60.87
2022-10-23T21:47:06.237Z,62.18
2022-10-23T21:49:33.789Z,62.53
2022-10-23T21:52:01.312Z,60.88
2022-10-23T21:54:28.791Z,60.06
2022-10-23T21:56:56.364Z,61.11
2022-10-23T21:59:30.147Z,63.60
2022-10-23T22:02:00.204Z,62.11
2022-10-23T22:04:27.834Z,62.89
2022-10-23T22:06:55.380Z,62.94
2022-10-23T22:09:23.747Z,64.91
2022-10-23T22:11:53.364Z,65.43
2022-10-23T22:14:21.880Z,66.88
2022-10-23T22:16:49.575Z,66.73
2022-10-23T22:19:19.936Z,66.69
2022-10-23T22:21:49.037Z,66.92
2022-10-23T22:24:21.222Z,67.64
2022-10-23T22:26:53.458Z,67.11
2022-10-23T22:29:24.634Z,66.30
2022-10-23T22:31:55.245Z,67.96
2022-10-23T22:34:59.013Z,68.25
2022-10-23T22:37:16.836Z,68.90
2022-10-23T22:39:44.279Z,68.58
2022-10-23T22:42:11.756Z,68.81
2022-10-23T22:44:39.204Z,67.63
2022-10-23T22:47:06.887Z,68.14
2022-10-23T22:49:34.484Z,68.70
2022-10-23T22:52:02.711Z,69.08
2022-10-23T22:54:31.409Z,69.77
2022-10-23T22:56:59.153Z,69.92
2022-10-23T22:59:26.672Z,69.98
2022-10-23T23:01:54.107Z,69.93
2022-10-23T23:04:38.323Z,69.71
2022-10-23T23:07:08.903Z,70.24
2022-10-23T23:09:41.712Z,69.88
2022-10-23T23:12:12.046Z,69.61
2022-10-23T23:14:40.688Z,69.67
2022-10-23T23:17:09.748Z,69.68
2022-10-23T23:19:37.289Z,70.61
2022-10-23T23:22:05.698Z,66.89
2022-10-23T23:24:33.331Z,67.82
2022-10-23T23:27:00.770Z,68.66
2022-10-23T23:29:29.612Z,70.59
2022-10-23T23:31:57.220Z,71.61
2022-10-23T23:34:24.690Z,71.56
2022-10-23T23:36:52.297Z,71.75
2022-10-23T23:39:19.800Z,73.11
2022-10-23T23:41:47.195Z,73.28
2022-10-23T23:44:14.923Z,72.55
2022-10-23T23:46:42.351Z,73.16
2022-10-23T23:49:09.842Z,73.39
2022-10-23T23:51:37.345Z,73.22
2022-10-23T23:54:05.267Z,73.13
2022-10-23T23:56:32.797Z,73.06
2022-10-23T23:59:00.257Z,72.39
